createdAt,value
2019-04-21T00:01:09.188Z,8.50
2019-04-21T00:03:43.006Z,10.13
2019-04-21T00:06:32.421Z,9.00
2019-04-21T00:09:04.268Z,8.80
2019-04-21T00:11:29.256Z,8.73
2019-04-21T00:13:52.406Z,9.00
2019-04-21T00:16:15.653Z,9.10
2019-04-21T00:19:09.075Z,10.17
2019-04-21T00:21:40.473Z,9.27
2019-04-21T00:24:24.032Z,9.17
2019-04-21T00:27:03.915Z,9.23
2019-04-21T00:29:38.527Z,8.30
2019-04-21T00:31:58.915Z,8.80
2019-04-21T00:34:17.713Z,9.27
2019-04-21T00:36:57.363Z,8.33
2019-04-21T00:40:02.163Z,8.50
2019-04-21T00:42:30.329Z,9.13
2019-04-21T00:44:57.715Z,8.67
2019-04-21T00:47:30.634Z,8.60
2019-04-21T00:50:03.623Z,8.77
2019-04-21T00:52:52.645Z,8.30
2019-04-21T00:55:30.479Z,8.80
2019-04-21T01:00:22.253Z,9.70
2019-04-21T01:05:21.172Z,9.43
2019-04-21T01:07:50.816Z,9.30
2019-04-21T01:10:15.034Z,8.77
2019-04-21T01:12:54.724Z,7.50
2019-04-21T01:15:35.218Z,7.50
2019-04-21T01:17:52.215Z,8.07
2019-04-21T01:20:16.145Z,9.83
2019-04-21T01:22:34.915Z,9.03
2019-04-21T01:25:13.317Z,7.63
2019-04-21T01:27:59.355Z,9.70
2019-04-21T01:30:43.070Z,8.97
2019-04-21T01:32:53.189Z,10.13
2019-04-21T01:35:31.251Z,9.40
2019-04-21T01:37:57.179Z,8.00
2019-04-21T01:40:34.872Z,11.73
2019-04-21T01:42:55.686Z,9.93
2019-04-21T01:45:27.739Z,8.10
2019-04-21T01:47:59.693Z,8.17
2019-04-21T01:50:31.567Z,8.57
2019-04-21T01:53:02.045Z,7.87
2019-04-21T01:55:54.126Z,8.63
2019-04-21T01:58:19.727Z,9.73
2019-04-21T02:01:00.117Z,8.20
2019-04-21T02:03:48.716Z,8.80
2019-04-21T02:06:07.784Z,8.00
2019-04-21T02:08:34.683Z,9.63
2019-04-21T02:11:07.508Z,8.43
2019-04-21T02:13:44.319Z,10.40
2019-04-21T02:16:08.448Z,9.43
2019-04-21T02:18:33.734Z,8.40
2019-04-21T02:20:53.870Z,8.07
2019-04-21T02:23:38.244Z,8.90
2019-04-21T02:26:12.737Z,9.70
2019-04-21T02:28:42.416Z,7.80
2019-04-21T02:33:55.780Z,8.60
2019-04-21T02:41:13.356Z,9.10
2019-04-21T02:43:58.338Z,8.03
2019-04-21T02:46:24.838Z,8.50
2019-04-21T02:48:59.773Z,8.73
2019-04-21T02:54:11.966Z,8.33
2019-04-21T02:56:26.406Z,7.80
2019-04-21T02:58:58.354Z,9.77
2019-04-21T03:04:47.192Z,7.33
2019-04-21T03:15:00.242Z,8.10
2019-04-21T03:17:23.923Z,8.17
2019-04-21T03:20:00.689Z,7.93
2019-04-21T03:22:20.038Z,7.97
2019-04-21T03:29:55.115Z,8.65
2019-04-21T03:32:50.681Z,8.40
2019-04-21T03:35:18.428Z,9.07
2019-04-21T03:37:25.199Z,9.13
2019-04-21T03:39:50.935Z,8.97
2019-04-21T03:42:32.299Z,8.00
2019-04-21T03:44:59.484Z,7.93
2019-04-21T03:49:59.875Z,9.83
2019-04-21T03:55:33.379Z,11.47
2019-04-21T03:57:58.028Z,8.20
2019-04-21T04:00:31.840Z,8.10
2019-04-21T04:03:19.966Z,7.93
2019-04-21T04:06:01.968Z,7.27
2019-04-21T04:11:03.024Z,9.17
2019-04-21T04:13:44.868Z,8.17
2019-04-21T04:16:06.111Z,8.47
2019-04-21T04:18:44.574Z,10.63
2019-04-21T04:21:05.799Z,8.57
2019-04-21T04:23:31.537Z,8.43
2019-04-21T04:26:02.434Z,9.50
2019-04-21T04:28:39.915Z,8.47
2019-04-21T04:31:05.828Z,7.90
2019-04-21T04:33:39.283Z,9.50
2019-04-21T04:41:26.609Z,8.53
2019-04-21T04:43:55.207Z,8.90
2019-04-21T04:46:33.443Z,9.13
2019-04-21T04:48:51.665Z,9.07
2019-04-21T04:51:37.055Z,9.03
2019-04-21T04:53:47.476Z,11.63
2019-04-21T04:56:30.687Z,10.00
2019-04-21T05:03:56.601Z,8.43
2019-04-21T05:14:03.305Z,8.73
2019-04-21T05:23:52.135Z,8.70
2019-04-21T05:26:14.655Z,9.00
2019-04-21T05:28:47.318Z,8.53
2019-04-21T05:31:51.122Z,9.63
2019-04-21T05:34:27.605Z,8.53
2019-04-21T05:37:23.291Z,10.00
2019-04-21T05:40:00.679Z,9.70
2019-04-21T05:42:33.208Z,11.10
2019-04-21T05:45:29.796Z,9.20
2019-04-21T05:48:04.738Z,9.67
2019-04-21T05:50:40.023Z,9.17
2019-04-21T05:53:25.369Z,8.70
2019-04-21T05:55:50.194Z,9.45
2019-04-21T05:58:12.054Z,9.20
2019-04-21T06:03:35.229Z,12.83
2019-04-21T06:06:10.762Z,8.47
2019-04-21T06:08:33.025Z,8.63
2019-04-21T06:11:02.113Z,8.73
2019-04-21T06:16:03.536Z,14.60
2019-04-21T06:18:46.535Z,9.77
2019-04-21T06:21:07.205Z,8.77
2019-04-21T06:23:36.036Z,9.43
2019-04-21T06:28:41.489Z,8.63
2019-04-21T06:33:40.355Z,8.53
2019-04-21T06:39:08.673Z,8.63
2019-04-21T06:44:09.515Z,9.93
2019-04-21T06:46:40.795Z,8.13
2019-04-21T06:51:33.051Z,8.77
2019-04-21T06:54:03.835Z,8.47
2019-04-21T06:56:37.981Z,7.77
2019-04-21T06:59:01.251Z,7.67
2019-04-21T07:01:36.280Z,9.30
2019-04-21T07:04:11.203Z,9.43
2019-04-21T07:06:46.953Z,11.63
2019-04-21T07:09:15.306Z,12.10
2019-04-21T07:11:36.845Z,7.80
2019-04-21T07:14:27.238Z,9.43
2019-04-21T07:16:45.217Z,12.40
2019-04-21T07:21:45.593Z,8.97
2019-04-21T07:24:21.802Z,8.53
2019-04-21T07:26:42.727Z,8.80
2019-04-21T07:29:23.982Z,9.03
2019-04-21T07:31:57.182Z,11.80
2019-04-21T07:34:23.883Z,8.17
2019-04-21T07:39:18.070Z,8.77
2019-04-21T07:41:44.056Z,9.27
2019-04-21T07:44:15.986Z,8.33
2019-04-21T07:46:45.223Z,9.07
2019-04-21T07:49:41.585Z,8.43
2019-04-21T07:52:30.107Z,12.27
2019-04-21T07:55:05.631Z,9.27
2019-04-21T07:57:23.427Z,11.07
2019-04-21T08:00:12.465Z,11.33
2019-04-21T08:02:30.798Z,9.87
2019-04-21T08:05:07.587Z,10.17
2019-04-21T08:07:42.111Z,10.77
2019-04-21T08:09:58.445Z,8.47
2019-04-21T08:12:25.849Z,9.57
2019-04-21T08:15:09.654Z,10.23
2019-04-21T08:17:36.024Z,10.30
2019-04-21T08:20:00.581Z,11.20
2019-04-21T08:22:41.467Z,9.67
2019-04-21T08:25:13.856Z,9.63
2019-04-21T08:27:41.732Z,10.00
2019-04-21T08:30:11.836Z,10.43
2019-04-21T08:35:34.380Z,9.07
2019-04-21T08:37:43.414Z,12.80
2019-04-21T08:40:17.965Z,11.63
2019-04-21T08:42:49.453Z,9.30
2019-04-21T08:45:14.754Z,8.97
2019-04-21T08:47:48.622Z,9.77
2019-04-21T08:50:15.123Z,8.50
2019-04-21T08:52:56.852Z,8.87
2019-04-21T08:55:40.043Z,9.53
2019-04-21T08:58:22.663Z,10.57
2019-04-21T09:01:06.626Z,8.93
2019-04-21T09:03:49.570Z,11.90
2019-04-21T09:06:27.925Z,9.18
2019-04-21T09:08:46.282Z,9.57
2019-04-21T09:11:16.222Z,8.33
2019-04-21T09:13:50.678Z,9.67
2019-04-21T09:16:15.390Z,8.23
2019-04-21T09:18:48.692Z,9.20
2019-04-21T09:21:25.923Z,8.00
2019-04-21T09:23:53.969Z,7.97
2019-04-21T09:26:28.062Z,11.83
2019-04-21T09:28:47.993Z,8.03
2019-04-21T09:31:08.941Z,8.53
2019-04-21T09:33:45.382Z,7.10
2019-04-21T09:36:14.631Z,10.30
2019-04-21T09:38:43.628Z,9.73
2019-04-21T09:41:16.101Z,8.53
2019-04-21T09:43:48.394Z,7.60
2019-04-21T09:46:14.201Z,8.97
2019-04-21T09:48:52.836Z,9.30
2019-04-21T09:51:15.549Z,8.40
2019-04-21T09:53:54.584Z,8.20
2019-04-21T09:56:18.571Z,8.83
2019-04-21T09:58:51.701Z,7.97
2019-04-21T10:01:26.824Z,8.13
2019-04-21T10:03:53.735Z,8.30
2019-04-21T10:06:20.822Z,8.83
2019-04-21T10:08:57.591Z,8.37
2019-04-21T10:11:22.600Z,10.50
2019-04-21T10:13:52.984Z,8.50
2019-04-21T10:16:44.948Z,9.50
2019-04-21T10:19:15.290Z,9.03
2019-04-21T10:21:44.770Z,8.27
2019-04-21T10:24:14.040Z,9.53
2019-04-21T10:26:43.299Z,9.03
2019-04-21T10:29:19.768Z,7.03
2019-04-21T10:31:44.873Z,7.97
2019-04-21T10:34:14.294Z,8.33
2019-04-21T10:36:44.767Z,7.03
2019-04-21T10:39:15.606Z,10.17
2019-04-21T10:41:45.771Z,8.27
2019-04-21T10:44:16.875Z,7.10
2019-04-21T10:46:48.406Z,6.53
2019-04-21T10:49:17.362Z,8.27
2019-04-21T10:51:46.773Z,10.20
2019-04-21T10:54:16.055Z,7.23
2019-04-21T10:56:46.092Z,7.10
2019-04-21T10:59:16.369Z,7.27
2019-04-21T11:01:45.699Z,7.50
2019-04-21T11:04:25.393Z,6.40
2019-04-21T11:06:52.532Z,7.77
2019-04-21T11:09:22.259Z,6.53
2019-04-21T11:11:53.404Z,5.33
2019-04-21T11:14:23.118Z,8.07
2019-04-21T11:16:53.073Z,7.77
2019-04-21T11:19:24.275Z,5.67
2019-04-21T11:21:54.668Z,5.30
2019-04-21T11:24:25.063Z,6.97
2019-04-21T11:26:55.819Z,6.53
2019-04-21T11:29:26.237Z,8.87
2019-04-21T11:31:56.878Z,5.10
2019-04-21T11:34:27.274Z,5.90
2019-04-21T11:36:56.703Z,5.20
2019-04-21T11:39:37.621Z,6.23
2019-04-21T11:42:01.717Z,7.00
2019-04-21T11:44:31.170Z,6.57
2019-04-21T11:47:00.623Z,6.20
2019-04-21T11:49:32.273Z,5.57
2019-04-21T11:52:00.893Z,5.62
2019-04-21T11:54:31.003Z,5.90
2019-04-21T11:57:03.538Z,6.73
2019-04-21T11:59:31.597Z,7.17
2019-04-21T12:02:01.549Z,5.67
2019-04-21T12:04:31.679Z,6.20
2019-04-21T12:07:01.882Z,5.60
2019-04-21T12:09:31.288Z,6.97
2019-04-21T12:12:01.224Z,6.17
2019-04-21T12:14:32.008Z,6.10
2019-04-21T12:17:02.637Z,6.73
2019-04-21T12:19:32.599Z,5.77
2019-04-21T12:22:11.358Z,5.90
2019-04-21T12:24:37.988Z,6.00
2019-04-21T12:27:07.920Z,7.40
2019-04-21T12:29:37.793Z,5.30
2019-04-21T12:32:20.248Z,5.80
2019-04-21T12:34:51.749Z,8.00
2019-04-21T12:37:20.518Z,7.27
2019-04-21T12:39:50.552Z,9.03
2019-04-21T12:42:20.751Z,6.20
2019-04-21T12:44:51.630Z,6.30
2019-04-21T12:47:21.768Z,7.27
2019-04-21T12:49:52.008Z,6.47
2019-04-21T12:52:21.855Z,6.97
2019-04-21T12:54:51.526Z,5.83
2019-04-21T12:57:21.412Z,5.80
2019-04-21T12:59:50.947Z,8.80
2019-04-21T13:02:20.265Z,5.17
2019-04-21T13:04:50.846Z,7.70
2019-04-21T13:07:21.571Z,5.40
2019-04-21T13:09:52.514Z,5.57
2019-04-21T13:12:22.855Z,5.77
2019-04-21T13:14:54.727Z,5.40
2019-04-21T13:17:23.592Z,8.47
2019-04-21T13:19:53.567Z,4.90
2019-04-21T13:22:23.714Z,7.17
2019-04-21T13:24:53.881Z,5.70
2019-04-21T13:27:24.699Z,6.03
2019-04-21T13:29:54.560Z,5.20
2019-04-21T13:32:43.168Z,5.63
2019-04-21T13:35:13.051Z,6.67
2019-04-21T13:37:43.626Z,6.40
2019-04-21T13:40:51.788Z,6.97
2019-04-21T13:43:06.650Z,6.23
2019-04-21T13:45:35.939Z,5.57
2019-04-21T13:48:06.672Z,5.30
2019-04-21T13:50:37.215Z,5.63
2019-04-21T13:53:06.963Z,6.10
2019-04-21T13:55:37.410Z,7.03
2019-04-21T13:58:08.568Z,7.00
2019-04-21T14:00:39.985Z,7.03
2019-04-21T14:03:10.432Z,6.53
2019-04-21T14:05:40.277Z,6.80
2019-04-21T14:08:11.177Z,5.60
2019-04-21T14:10:41.711Z,5.83
2019-04-21T14:13:12.150Z,5.27
2019-04-21T14:15:42.085Z,6.57
2019-04-21T14:18:13.019Z,6.27
2019-04-21T14:20:42.953Z,6.57
2019-04-21T14:23:20.996Z,5.20
2019-04-21T14:25:43.832Z,5.50
2019-04-21T14:28:14.248Z,7.40
2019-04-21T14:30:44.290Z,6.77
2019-04-21T14:33:14.207Z,7.27
2019-04-21T14:35:45.015Z,5.10
2019-04-21T14:38:16.554Z,8.20
2019-04-21T14:40:46.206Z,4.77
2019-04-21T14:43:16.425Z,5.53
2019-04-21T14:45:51.033Z,6.90
2019-04-21T14:48:39.360Z,7.67
2019-04-21T14:51:34.945Z,5.70
2019-04-21T14:54:12.003Z,5.07
2019-04-21T14:56:41.338Z,5.43
2019-04-21T14:59:10.982Z,5.97
2019-04-21T15:01:40.422Z,5.20
2019-04-21T15:04:10.018Z,4.70
2019-04-21T15:06:39.400Z,5.17
2019-04-21T15:09:09.295Z,8.23
2019-04-21T15:11:39.866Z,6.00
2019-04-21T15:14:09.458Z,4.97
2019-04-21T15:16:38.798Z,5.10
2019-04-21T15:19:08.647Z,5.07
2019-04-21T15:21:37.999Z,4.67
2019-04-21T15:24:08.601Z,7.57
2019-04-21T15:26:38.130Z,7.23
2019-04-21T15:29:08.763Z,5.83
2019-04-21T15:31:41.716Z,5.07
2019-04-21T15:34:09.235Z,5.17
2019-04-21T15:36:39.985Z,4.70
2019-04-21T15:39:10.109Z,4.70
2019-04-21T15:41:40.797Z,4.63
2019-04-21T15:44:10.122Z,5.83
2019-04-21T15:46:39.921Z,5.50
2019-04-21T15:49:09.389Z,4.20
2019-04-21T15:51:39.962Z,4.60
2019-04-21T15:54:09.350Z,4.47
2019-04-21T15:56:42.746Z,4.57
2019-04-21T15:59:30.610Z,5.53
2019-04-21T16:02:19.109Z,4.27
2019-04-21T16:04:48.681Z,4.23
2019-04-21T16:07:18.090Z,7.10
2019-04-21T16:09:48.154Z,5.23
2019-04-21T16:12:17.795Z,5.23
2019-04-21T16:14:47.178Z,6.27
2019-04-21T16:17:17.078Z,4.57
2019-04-21T16:19:47.944Z,4.10
2019-04-21T16:22:18.799Z,5.67
2019-04-21T16:24:48.188Z,4.20
2019-04-21T16:27:17.515Z,4.77
2019-04-21T16:29:47.929Z,5.23
2019-04-21T16:32:18.358Z,5.10
2019-04-21T16:34:54.252Z,5.77
2019-04-21T16:37:19.507Z,3.90
2019-04-21T16:39:49.525Z,4.77
2019-04-21T16:42:20.341Z,3.63
2019-04-21T16:44:49.846Z,3.60
2019-04-21T16:47:19.401Z,5.07
2019-04-21T16:49:49.905Z,7.83
2019-04-21T16:52:23.971Z,5.90
2019-04-21T16:54:58.417Z,3.87
2019-04-21T16:57:41.876Z,3.40
2019-04-21T17:00:26.967Z,4.90
2019-04-21T17:02:48.311Z,2.90
2019-04-21T17:05:18.442Z,2.93
2019-04-21T17:07:49.107Z,2.93
2019-04-21T17:10:20.274Z,3.27
2019-04-21T17:12:49.690Z,4.50
2019-04-21T17:15:37.298Z,3.60
2019-04-21T17:18:07.804Z,7.10
2019-04-21T17:20:34.112Z,4.50
2019-04-21T17:22:53.656Z,3.50
2019-04-21T17:25:24.953Z,3.47
2019-04-21T17:27:54.611Z,3.80
2019-04-21T17:30:24.502Z,5.80
2019-04-21T17:32:54.159Z,3.47
2019-04-21T17:35:24.868Z,3.80
2019-04-21T17:37:54.328Z,3.30
2019-04-21T17:40:26.847Z,3.77
2019-04-21T17:43:02.082Z,5.07
2019-04-21T17:45:27.219Z,4.20
2019-04-21T17:48:03.315Z,3.57
2019-04-21T17:50:47.473Z,3.67
2019-04-21T17:53:29.093Z,5.10
2019-04-21T17:56:16.411Z,3.37
2019-04-21T17:58:38.731Z,4.90
2019-04-21T18:03:56.935Z,4.20
2019-04-21T18:06:05.044Z,6.27
2019-04-21T18:08:47.946Z,5.07
2019-04-21T18:11:06.231Z,3.27
2019-04-21T18:13:28.929Z,4.87
2019-04-21T18:16:09.611Z,4.27
2019-04-21T18:18:30.605Z,6.13
2019-04-21T18:21:07.075Z,5.93
2019-04-21T18:23:54.808Z,5.07
2019-04-21T18:26:28.879Z,4.43
2019-04-21T18:28:48.642Z,4.03
2019-04-21T18:31:18.500Z,4.47
2019-04-21T18:34:11.056Z,6.40
2019-04-21T18:36:49.942Z,4.13
2019-04-21T18:39:52.572Z,4.10
2019-04-21T18:42:38.776Z,7.23
2019-04-21T18:45:40.327Z,6.43
2019-04-21T18:48:12.772Z,5.80
2019-04-21T18:50:50.713Z,5.73
2019-04-21T18:53:37.831Z,5.77
2019-04-21T18:55:58.323Z,7.30
2019-04-21T18:58:22.480Z,6.23
2019-04-21T19:00:53.144Z,6.97
2019-04-21T19:03:28.299Z,6.93
2019-04-21T19:06:02.825Z,4.53
2019-04-21T19:08:51.226Z,6.80
2019-04-21T19:11:15.011Z,7.00
2019-04-21T19:14:17.482Z,6.13
2019-04-21T19:19:33.053Z,7.57
2019-04-21T19:21:31.144Z,10.77
2019-04-21T19:24:17.933Z,7.67
2019-04-21T19:26:49.453Z,8.53
2019-04-21T19:29:19.743Z,6.90
2019-04-21T19:31:44.461Z,8.13
2019-04-21T19:34:02.586Z,6.03
2019-04-21T19:36:25.633Z,5.43
2019-04-21T19:39:03.463Z,5.33
2019-04-21T19:41:41.091Z,5.50
2019-04-21T19:44:14.240Z,5.10
2019-04-21T19:46:42.117Z,4.67
2019-04-21T19:49:22.739Z,4.60
2019-04-21T19:51:42.858Z,6.27
2019-04-21T19:54:11.038Z,6.23
2019-04-21T19:56:35.175Z,7.00
2019-04-21T19:59:03.554Z,7.27
2019-04-21T20:01:32.925Z,6.33
2019-04-21T20:04:04.540Z,5.83
2019-04-21T20:06:47.587Z,6.67
2019-04-21T20:09:21.858Z,6.70
2019-04-21T20:11:55.491Z,4.63
2019-04-21T20:16:53.130Z,6.23
2019-04-21T20:19:13.897Z,4.87
2019-04-21T20:22:03.178Z,6.27
2019-04-21T20:24:35.731Z,6.60
2019-04-21T20:27:11.348Z,5.03
2019-04-21T20:29:54.259Z,4.87
2019-04-21T20:35:00.868Z,4.57
2019-04-21T20:37:25.202Z,5.43
2019-04-21T20:39:47.027Z,6.17
2019-04-21T20:42:22.615Z,6.10
2019-04-21T20:45:17.814Z,5.13
2019-04-21T20:47:22.844Z,8.27
2019-04-21T20:49:59.225Z,6.60
2019-04-21T20:52:36.894Z,7.60
2019-04-21T20:54:59.753Z,7.73
2019-04-21T20:57:30.099Z,8.23
2019-04-21T21:00:05.666Z,7.77
2019-04-21T21:02:41.697Z,6.77
2019-04-21T21:04:58.999Z,7.37
2019-04-21T21:10:10.652Z,7.00
2019-04-21T21:12:49.101Z,7.33
2019-04-21T21:15:04.164Z,7.47
2019-04-21T21:17:52.357Z,6.93
2019-04-21T21:20:19.652Z,7.50
2019-04-21T21:22:45.190Z,7.53
2019-04-21T21:25:18.896Z,8.67
2019-04-21T21:27:42.959Z,7.73
2019-04-21T21:30:17.461Z,8.50
2019-04-21T21:32:52.104Z,7.23
2019-04-21T21:35:19.255Z,9.10
2019-04-21T21:37:58.718Z,8.77
2019-04-21T21:40:22.294Z,6.13
2019-04-21T21:42:40.757Z,7.60
2019-04-21T21:45:16.026Z,7.20
2019-04-21T21:47:53.653Z,6.47
2019-04-21T21:50:23.333Z,6.93
2019-04-21T21:52:52.493Z,7.17
2019-04-21T21:55:13.899Z,6.40
2019-04-21T21:57:49.911Z,6.00
2019-04-21T22:00:15.613Z,8.90
2019-04-21T22:02:51.346Z,7.47
2019-04-21T22:05:24.270Z,5.87
2019-04-21T22:07:52.194Z,9.20
2019-04-21T22:10:21.592Z,7.50
2019-04-21T22:13:01.027Z,8.20
2019-04-21T22:15:24.871Z,6.93
2019-04-21T22:18:14.795Z,6.47
2019-04-21T22:20:42.107Z,6.63
2019-04-21T22:23:02.227Z,6.33
2019-04-21T22:25:29.982Z,8.90
2019-04-21T22:27:57.894Z,5.93
2019-04-21T22:30:34.901Z,6.43
2019-04-21T22:33:04.537Z,6.10
2019-04-21T22:35:38.119Z,7.10
2019-04-21T22:38:16.151Z,6.07
2019-04-21T22:40:47.535Z,5.70
2019-04-21T22:43:11.564Z,6.67
2019-04-21T22:45:33.821Z,7.43
2019-04-21T22:48:12.401Z,8.47
2019-04-21T22:50:36.523Z,6.20
2019-04-21T22:53:09.659Z,6.50
2019-04-21T22:55:37.315Z,7.23
2019-04-21T22:58:07.654Z,6.47
2019-04-21T23:00:44.445Z,7.00
2019-04-21T23:03:13.823Z,9.53
2019-04-21T23:05:42.989Z,8.40
2019-04-21T23:08:11.098Z,7.43
2019-04-21T23:10:41.490Z,6.53
2019-04-21T23:13:16.898Z,6.93
2019-04-21T23:15:50.625Z,7.97
2019-04-21T23:18:34.909Z,7.63
2019-04-21T23:21:03.330Z,6.30
2019-04-21T23:23:37.010Z,7.77
2019-04-21T23:26:09.159Z,7.67
2019-04-21T23:28:40.403Z,6.97
2019-04-21T23:31:09.822Z,5.90
2019-04-21T23:33:21.676Z,6.20
2019-04-21T23:36:00.926Z,7.20
2019-04-21T23:38:30.280Z,6.97
2019-04-21T23:40:57.846Z,5.87
2019-04-21T23:43:26.361Z,5.60
2019-04-21T23:45:54.478Z,6.20
2019-04-21T23:48:36.450Z,5.97
2019-04-21T23:51:10.133Z,6.87
2019-04-21T23:53:25.759Z,7.73
2019-04-21T23:55:55.066Z,7.67
2019-04-21T23:58:29.077Z,9.47
